YBBNYBRK

Guest
Details From YBBN - Brisbane Intl
To YBRK - Rockhampton
Flight Number -
Tags Generated
Created
Modified
Stats Distance 281 nm / 520 km
Max Altitude 0 ft / 0 m
Waypoints 3
Social Downloads 1
Likes 0
Share VATSIM

Download

Looking for another format? Having issues loading an existing format? Contact us
Advertisement - Login to hide

Notes

Generated

Route

YBBN BRKSF YBRK

ID Type Via Altitude Latitude Longitude Leg Dist Tot Dist Heading (true) Name
O YBBN APT - 0 ft / 0 m -27.40786˚ 153.10379˚ - 0 nm - -
BRKSF FIX - 0 ft / 0 m -23.47212˚ 150.51638˚ 274 nm 274 nm 329° / 330° -
O YBRK APT - 0 ft / 0 m -23.38245˚ 150.46540˚ 6 nm 280 nm 332° / 332° Rockhampton

Altitude Profile

Advertisement - Login to hide

Weather


0- 5 10 15 20 25 30 35+ Temperature / ° C

Clouds and Precipitation
Forecast for 2018-05-25 06:00 UTC. Updated 3 hours ago

Ground ~20,000 ft ~40,000 ft Winds

YBBN

Details ICAO YBBN (BNE)
Name Brisbane Intl
Region Australia
Timezone Australia/Brisbane (UTC+10.0)
Stats Elevation 12 ft / 4 m (AMSL)
Location -27.375714° 153.127710°
Runways 2
Magnetic Variation 10.987° E

METAR

YBBN 250730Z 15009KT 9999 FEW020 SCT070 BKN220 20/12 Q1023 NOSIG

Decode

TAF

TAF YBBN 250502Z 2506/2612 14012KT 9999 -SHRA SCT030 FM251000 19008KT 9999 -SHRA BKN025 FM252200 16012KT 9999 -SHRA SCT035 FM261000 19008KT 9999 -SHRA SCT030 INTER 2506/2521 3000 SHRA BKN010

Decode

Departure Runways

ID Width Length Bearing (true) Bearing (mag) Surface Threshold Offset Overrun Length
01 148 ft / 45 m 11,805 ft / 3,598 m 26.93° 15.94° Asphalt 197 ft / 60 m 0 ft / 0 m
14 98 ft / 30 m 5,787 ft / 1,764 m 145.66° 134.67° Asphalt 197 ft / 60 m 0 ft / 0 m
19 148 ft / 45 m 11,805 ft / 3,598 m 206.92° 195.93° Asphalt 0 ft / 0 m 0 ft / 0 m
32 98 ft / 30 m 5,787 ft / 1,764 m 325.66° 314.67° Asphalt 197 ft / 60 m 0 ft / 0 m

YBRK

Details ICAO YBRK (ROK)
Name Rockhampton
Region Australia
Timezone Australia/Brisbane (UTC+10.0)
Stats Elevation 34 ft / 10 m (AMSL)
Location -23.378793° 150.473288°
Runways 2
Magnetic Variation 9.203° E

METAR

YBRK 250730Z AUTO 10009KT 9999 // NCD 23/14 Q1019 RF00.0/000.0

Decode

TAF

TAF YBRK 250527Z 2506/2606 12014KT 9999 -SHRA SCT035 FM251200 14007KT 9999 SCT025 FM252300 12014KT 9999 SCT035 INTER 2506/2510 3000 SHRA BKN010

Decode

Destination Runways

ID Width Length Bearing (true) Bearing (mag) Surface Threshold Offset Overrun Length
04 102 ft / 31 m 5,395 ft / 1,644 m 52.34° 43.14° Asphalt 0 ft / 0 m 20 ft / 6 m
15 148 ft / 45 m 8,649 ft / 2,636 m 157.80° 148.60° Asphalt 0 ft / 0 m 0 ft / 0 m
22 102 ft / 31 m 5,395 ft / 1,644 m 232.34° 223.14° Asphalt 0 ft / 0 m 0 ft / 0 m
33 148 ft / 45 m 8,649 ft / 2,636 m 337.80° 328.60° Asphalt 0 ft / 0 m 0 ft / 0 m

Popular Alternatives